createdAt,value
2019-02-20T00:02:41.269Z,6.32
2019-02-20T00:07:46.455Z,6.25
2019-02-20T00:12:56.520Z,6.16
2019-02-20T00:18:01.598Z,6.13
2019-02-20T00:23:06.673Z,6.07
2019-02-20T00:28:12.204Z,6.07
2019-02-20T00:33:17.304Z,6.05
2019-02-20T00:38:22.733Z,5.95
2019-02-20T00:43:27.914Z,5.93
2019-02-20T00:48:50.881Z,5.97
2019-02-20T00:53:59.052Z,6.10
2019-02-20T00:59:04.058Z,6.21
2019-02-20T01:04:09.160Z,6.27
2019-02-20T01:09:14.262Z,6.26
2019-02-20T01:14:19.286Z,6.06
2019-02-20T01:19:24.803Z,5.91
2019-02-20T01:24:31.184Z,5.88
2019-02-20T01:29:36.640Z,5.82
2019-02-20T01:34:41.728Z,5.76
2019-02-20T01:39:49.422Z,5.83
2019-02-20T01:44:54.390Z,5.75
2019-02-20T01:49:59.428Z,5.68
2019-02-20T01:55:04.889Z,5.62
2019-02-20T02:00:10.343Z,5.65
2019-02-20T02:05:16.025Z,5.62
2019-02-20T02:10:22.298Z,5.61
2019-02-20T02:15:27.704Z,5.71
2019-02-20T02:20:32.854Z,5.78
2019-02-20T02:25:37.936Z,5.76
2019-02-20T02:30:42.940Z,5.77
2019-02-20T02:35:48.610Z,5.69
2019-02-20T02:40:54.735Z,5.62
2019-02-20T02:45:59.899Z,5.65
2019-02-20T02:51:05.461Z,5.71
2019-02-20T02:56:10.532Z,5.81
2019-02-20T03:01:15.614Z,5.75
2019-02-20T03:06:20.640Z,5.78
2019-02-20T03:11:25.663Z,5.86
2019-02-20T03:16:30.782Z,5.87
2019-02-20T03:21:35.844Z,5.87
2019-02-20T03:26:40.926Z,5.76
2019-02-20T03:31:46.367Z,5.64
2019-02-20T03:36:51.368Z,5.61
2019-02-20T03:41:56.951Z,5.54
2019-02-20T03:47:02.218Z,5.39
2019-02-20T03:52:07.446Z,5.38
2019-02-20T03:57:12.583Z,5.31
2019-02-20T04:02:17.996Z,5.27
2019-02-20T04:07:23.108Z,5.28
2019-02-20T04:12:28.579Z,5.33
2019-02-20T04:17:34.081Z,5.29
2019-02-20T04:22:39.277Z,5.42
2019-02-20T04:27:44.389Z,5.41
2019-02-20T04:32:49.796Z,5.39
2019-02-20T04:37:55.975Z,5.34
2019-02-20T04:43:00.985Z,5.33
2019-02-20T04:48:06.005Z,5.38
2019-02-20T04:53:11.131Z,5.47
2019-02-20T04:58:18.901Z,5.54
2019-02-20T05:03:23.907Z,5.55
2019-02-20T05:08:29.072Z,5.59
2019-02-20T05:13:35.096Z,5.53
2019-02-20T05:18:40.180Z,5.57
2019-02-20T05:23:45.370Z,5.60
2019-02-20T05:28:50.871Z,5.61
2019-02-20T05:33:55.894Z,5.62
2019-02-20T05:39:01.739Z,5.64
2019-02-20T05:44:08.473Z,5.70
2019-02-20T05:49:13.557Z,5.76
2019-02-20T05:54:20.055Z,5.83
2019-02-20T05:59:25.253Z,5.91
2019-02-20T06:04:30.286Z,5.97
2019-02-20T06:09:35.362Z,5.98
2019-02-20T06:14:40.766Z,6.02
2019-02-20T06:19:45.903Z,6.10
2019-02-20T06:24:51.435Z,6.05
2019-02-20T06:29:57.415Z,6.11
2019-02-20T06:35:02.530Z,6.05
2019-02-20T06:40:08.753Z,5.98
2019-02-20T06:45:13.857Z,5.95
2019-02-20T06:50:21.061Z,5.97
2019-02-20T06:55:26.236Z,5.99
2019-02-20T07:00:31.376Z,5.93
2019-02-20T07:05:44.893Z,5.97
2019-02-20T07:11:30.138Z,5.97
2019-02-20T07:17:04.148Z,5.96
2019-02-20T07:22:34.382Z,6.03
2019-02-20T07:28:09.902Z,5.98
2019-02-20T07:33:15.587Z,6.05
2019-02-20T07:38:20.775Z,6.09
2019-02-20T07:43:26.324Z,6.17
2019-02-20T07:48:31.431Z,6.25
2019-02-20T07:53:36.987Z,6.35
2019-02-20T07:58:42.597Z,6.47
2019-02-20T08:03:47.861Z,6.59
2019-02-20T08:08:53.405Z,6.67
2019-02-20T08:14:03.722Z,6.63
2019-02-20T08:19:08.850Z,6.66
2019-02-20T08:24:18.983Z,6.73
2019-02-20T08:29:24.098Z,6.83
2019-02-20T08:34:29.289Z,6.92
2019-02-20T08:39:34.531Z,7.06
2019-02-20T08:44:42.556Z,7.33
2019-02-20T08:49:47.645Z,7.38
2019-02-20T08:54:56.347Z,7.54
2019-02-20T09:00:05.703Z,7.67
2019-02-20T09:05:12.971Z,7.88
2019-02-20T09:10:19.202Z,7.94
2019-02-20T09:15:24.501Z,8.09
2019-02-20T09:20:30.191Z,8.35
2019-02-20T09:25:41.641Z,8.68
2019-02-20T09:30:42.650Z,8.74
2019-02-20T09:35:48.055Z,8.96
2019-02-20T09:40:55.044Z,9.10
2019-02-20T09:46:00.590Z,9.42
2019-02-20T09:51:05.818Z,9.47
2019-02-20T09:56:11.107Z,9.74
2019-02-20T10:01:16.237Z,11.54
2019-02-20T10:06:20.523Z,13.29
2019-02-20T10:11:24.814Z,13.15
2019-02-20T10:16:29.637Z,12.70
2019-02-20T10:21:33.714Z,12.79
2019-02-20T10:26:38.107Z,13.22
2019-02-20T10:31:49.142Z,12.58
2019-02-20T10:36:53.981Z,13.07
2019-02-20T10:41:59.303Z,12.50
2019-02-20T10:47:04.423Z,12.73
2019-02-20T10:52:09.905Z,13.05
2019-02-20T10:57:15.168Z,13.08
2019-02-20T11:02:20.565Z,13.08
2019-02-20T11:07:25.857Z,13.48
2019-02-20T11:12:39.061Z,13.79
2019-02-20T11:17:44.917Z,13.87
2019-02-20T11:22:51.194Z,14.99
2019-02-20T11:28:07.430Z,14.37
2019-02-20T11:33:14.857Z,13.74
2019-02-20T11:38:20.337Z,13.09
2019-02-20T11:43:34.629Z,12.50
2019-02-20T11:48:42.656Z,12.47
2019-02-20T11:53:49.269Z,13.62
2019-02-20T11:59:01.369Z,14.08
2019-02-20T12:04:12.246Z,14.87
2019-02-20T12:09:19.042Z,16.36
2019-02-20T12:14:24.834Z,16.36
2019-02-20T12:19:42.781Z,15.92
2019-02-20T12:24:49.526Z,15.22
2019-02-20T12:29:57.257Z,16.26
2019-02-20T12:35:05.154Z,16.90
2019-02-20T12:40:11.927Z,16.22
2019-02-20T12:45:24.411Z,16.78
2019-02-20T12:50:30.450Z,17.69
2019-02-20T12:55:40.681Z,17.78
2019-02-20T13:00:57.353Z,18.27
2019-02-20T13:06:03.451Z,18.05
2019-02-20T13:11:09.751Z,18.01
2019-02-20T13:16:15.272Z,17.75
2019-02-20T13:21:23.774Z,16.27
2019-02-20T13:26:29.464Z,15.91
2019-02-20T13:31:34.724Z,14.83
2019-02-20T13:36:40.189Z,14.48
2019-02-20T13:41:45.347Z,15.67
2019-02-20T13:46:50.759Z,15.82
2019-02-20T13:51:57.137Z,15.82
2019-02-20T13:57:02.534Z,14.91
2019-02-20T14:02:08.056Z,14.65
2019-02-20T14:07:16.309Z,14.02
2019-02-20T14:12:22.452Z,13.63
2019-02-20T14:17:28.341Z,14.08
2019-02-20T14:22:34.327Z,13.86
2019-02-20T14:28:13.254Z,14.06
2019-02-20T14:33:22.603Z,13.68
2019-02-20T14:38:27.865Z,13.13
2019-02-20T14:43:33.245Z,12.69
2019-02-20T14:48:38.624Z,12.49
2019-02-20T14:53:44.407Z,12.17
2019-02-20T14:58:52.889Z,11.89
2019-02-20T15:03:58.725Z,11.95
2019-02-20T15:09:06.034Z,11.98
2019-02-20T15:14:13.371Z,11.79
2019-02-20T15:19:19.753Z,11.59
2019-02-20T15:24:25.149Z,11.42
2019-02-20T15:29:32.521Z,11.37
2019-02-20T15:34:39.651Z,11.27
2019-02-20T15:39:45.391Z,11.12
2019-02-20T15:44:50.974Z,11.03
2019-02-20T15:49:56.411Z,11.02
2019-02-20T15:55:04.146Z,10.90
2019-02-20T16:00:11.498Z,10.88
2019-02-20T16:05:16.769Z,10.82
2019-02-20T16:10:22.444Z,10.71
2019-02-20T16:15:27.757Z,10.58
2019-02-20T16:20:35.171Z,10.49
2019-02-20T16:25:45.874Z,10.41
2019-02-20T16:30:51.381Z,10.33
2019-02-20T16:35:57.571Z,10.27
2019-02-20T16:41:04.770Z,10.19
2019-02-20T16:46:10.015Z,10.16
2019-02-20T16:51:15.337Z,10.07
2019-02-20T16:56:20.873Z,10.00
2019-02-20T17:01:26.464Z,10.01
2019-02-20T17:06:31.884Z,10.02
2019-02-20T17:11:37.257Z,9.99
2019-02-20T17:16:42.403Z,10.00
2019-02-20T17:21:47.559Z,9.97
2019-02-20T17:26:53.553Z,9.97
2019-02-20T17:31:59.070Z,9.95
2019-02-20T17:37:04.218Z,9.86
2019-02-20T17:42:09.350Z,9.84
2019-02-20T17:47:14.939Z,9.79
2019-02-20T17:52:21.473Z,9.79
2019-02-20T17:57:26.719Z,9.72
2019-02-20T18:02:32.193Z,9.69
2019-02-20T18:07:38.121Z,9.64
2019-02-20T18:12:43.393Z,9.62
2019-02-20T18:17:48.516Z,9.59
2019-02-20T18:22:54.411Z,9.56
2019-02-20T18:27:59.915Z,9.56
2019-02-20T18:33:05.432Z,9.58
2019-02-20T18:38:10.635Z,9.57
2019-02-20T18:43:16.055Z,9.52
2019-02-20T18:48:25.843Z,9.51
2019-02-20T18:53:32.084Z,9.50
2019-02-20T18:58:38.476Z,9.48
2019-02-20T19:03:44.217Z,9.53
2019-02-20T19:08:56.335Z,9.54
2019-02-20T19:14:25.974Z,9.51
2019-02-20T19:20:03.224Z,9.48
2019-02-20T19:25:37.329Z,9.48
2019-02-20T19:31:26.863Z,9.45
2019-02-20T19:37:19.164Z,9.47
2019-02-20T19:42:49.439Z,9.45
2019-02-20T19:48:21.965Z,9.45
2019-02-20T19:53:48.760Z,9.45
2019-02-20T19:59:21.714Z,9.40
2019-02-20T20:04:56.702Z,9.35
2019-02-20T20:10:46.472Z,9.31
2019-02-20T20:16:24.607Z,9.26
2019-02-20T20:22:07.854Z,9.29
2019-02-20T20:27:46.949Z,9.30
2019-02-20T20:33:45.589Z,9.20
2019-02-20T20:39:15.932Z,9.15
2019-02-20T20:44:48.120Z,9.14
2019-02-20T20:50:46.435Z,9.12
2019-02-20T20:56:23.511Z,9.10
2019-02-20T21:01:39.447Z,9.08
2019-02-20T21:07:35.337Z,9.02
2019-02-20T21:13:23.451Z,8.96
2019-02-20T21:19:21.468Z,8.94
2019-02-20T21:25:01.401Z,8.89
2019-02-20T21:30:42.815Z,8.83
2019-02-20T21:36:14.594Z,8.84
2019-02-20T21:42:00.326Z,8.76
2019-02-20T21:47:40.800Z,8.75
2019-02-20T21:52:52.362Z,8.62
2019-02-20T21:58:23.075Z,8.55
2019-02-20T22:03:53.725Z,8.48
2019-02-20T22:09:27.154Z,8.46
2019-02-20T22:14:57.704Z,8.42
2019-02-20T22:20:47.198Z,8.42
2019-02-20T22:26:08.975Z,8.36
2019-02-20T22:32:00.565Z,8.30
2019-02-20T22:37:34.516Z,8.27
2019-02-20T22:43:32.758Z,8.20
2019-02-20T22:49:18.016Z,8.10
2019-02-20T22:55:06.981Z,8.04
2019-02-20T23:01:08.034Z,8.00
2019-02-20T23:07:10.740Z,8.00
2019-02-20T23:12:54.628Z,7.97
2019-02-20T23:17:59.805Z,7.94
2019-02-20T23:23:23.965Z,7.98
2019-02-20T23:28:33.711Z,8.12
2019-02-20T23:33:39.195Z,8.16
2019-02-20T23:38:44.514Z,8.17
2019-02-20T23:43:52.149Z,8.23
2019-02-20T23:49:01.510Z,8.26
2019-02-20T23:54:10.150Z,8.21
2019-02-20T23:59:15.347Z,8.09
